Time;durP1;ratioP1;P1;durP2;ratioP2;P2;SDS_P1;SDS_P2;PMS_P1;PMS_P2;Temp;Humidity;BMP_temperature;BMP_pressure;BME280_temperature;BME280_humidity;BME280_pressure;Samples;Min_cycle;Max_cycle;Signal;HPM_P1;HPM_P2
2021/07/30 00:00:55;;;;;;;;;;;;;;;;;;5068238;28;19909;-89
2021/07/30 00:03:20;;;;;;;;;;;;;;;;;;5056367;28;20356;-89
2021/07/30 00:05:46;;;;;;;;;;;;;;;;;;5061208;28;19913;-89
2021/07/30 00:08:12;;;;;;;;;;;;;;;;;;5062179;28;19913;-89
2021/07/30 00:10:38;;;;;;;;;;;;;;;;;;5057421;28;19952;-89
2021/07/30 00:13:04;;;;;;;;;;;;;;;;;;5064937;28;19935;-89
2021/07/30 00:15:30;;;;;;;;;;;;;;;;;;5056432;28;19917;-89
2021/07/30 00:17:56;;;;;;;;;;;;;;;;;;5067761;28;19917;-89
2021/07/30 00:20:22;;;;;;;;;;;;;;;;;;5054528;28;20361;-89
2021/07/30 00:22:48;;;;;;;;;;;;;;;;;;5059112;28;19913;-90
2021/07/30 00:25:13;;;;;;;;;;;;;;;;;;5055876;28;20432;-89
2021/07/30 00:27:39;;;;;;;;;;;;;;;;;;5050131;28;19913;-89
2021/07/30 00:30:05;;;;;;;;;;;;;;;;;;5045224;28;19917;-89
2021/07/30 00:32:31;;;;;;;;;;;;;;;;;;5061779;28;20364;-89
2021/07/30 00:34:57;;;;;;;;;;;;;;;;;;5063268;28;19919;-90
2021/07/30 00:37:23;;;;;;;;;;;;;;;;;;5072560;28;19920;-91
2021/07/30 00:39:49;;;;;;;;;;;;;;;;;;5061824;28;20007;-89
2021/07/30 00:42:15;;;;;;;;;;;;;;;;;;5057402;28;19912;-89
2021/07/30 00:44:40;;;;;;;;;;;;;;;;;;5073189;28;19901;-88
2021/07/30 00:47:06;;;;;;;;;;;;;;;;;;5087043;28;19947;-88
2021/07/30 00:49:32;;;;;;;;;;;;;;;;;;5092754;28;19920;-89
2021/07/30 00:51:58;;;;;;;;;;;;;;;;;;5071776;28;19909;-89
2021/07/30 00:54:24;;;;;;;;;;;;;;;;;;5064541;28;19920;-90
2021/07/30 00:56:50;;;;;;;;;;;;;;;;;;5048238;28;19928;-91
2021/07/30 00:59:16;;;;;;;;;;;;;;;;;;5053544;28;19913;-88
2021/07/30 01:01:42;;;;;;;;;;;;;;;;;;5072166;28;19913;-91
2021/07/30 01:04:08;;;;;;;;;;;;;;;;;;5060395;28;20413;-91
2021/07/30 01:06:34;;;;;;;;;;;;;;;;;;5061656;28;19999;-88
2021/07/30 01:09:00;;;;;;;;;;;;;;;;;;5067302;28;19915;-91
2021/07/30 01:11:26;;;;;;;;;;;;;;;;;;5061735;28;19924;-88
2021/07/30 01:13:52;;;;;;;;;;;;;;;;;;5052946;28;19928;-90
2021/07/30 01:16:17;;;;;;;;;;;;;;;;;;5070036;28;19924;-91
2021/07/30 01:18:43;;;;;;;;;;;;;;;;;;5081571;28;19916;-90
2021/07/30 01:21:09;;;;;;;;;;;;;;;;;;5068791;28;20003;-90
2021/07/30 01:23:35;;;;;;;;;;;;;;;;;;5062401;28;20284;-90
2021/07/30 01:26:01;;;;;;;;;;;;;;;;;;5052199;28;19916;-89
2021/07/30 01:28:27;;;;;;;;;;;;;;;;;;5061320;28;19909;-90
2021/07/30 01:30:53;;;;;;;;;;;;;;;;;;5060098;28;19951;-90
2021/07/30 01:33:19;;;;;;;;;;;;;;;;;;5061816;28;19913;-90
2021/07/30 01:35:44;;;;;;;;;;;;;;;;;;5058240;28;19921;-90
2021/07/30 01:38:10;;;;;;;;;;;;;;;;;;5058643;28;19913;-91
2021/07/30 01:40:36;;;;;;;;;;;;;;;;;;5060347;28;20379;-90
2021/07/30 01:43:02;;;;;;;;;;;;;;;;;;5062270;28;19952;-90
2021/07/30 01:45:28;;;;;;;;;;;;;;;;;;5060556;28;19967;-90
2021/07/30 01:47:54;;;;;;;;;;;;;;;;;;5066462;28;19913;-90
2021/07/30 01:50:20;;;;;;;;;;;;;;;;;;5062945;28;19952;-89
2021/07/30 01:52:46;;;;;;;;;;;;;;;;;;5060034;28;19935;-89
2021/07/30 01:55:11;;;;;;;;;;;;;;;;;;5081320;28;20048;-90
2021/07/30 01:57:37;;;;;;;;;;;;;;;;;;5063952;28;20380;-90
2021/07/30 02:00:03;;;;;;;;;;;;;;;;;;5061810;28;19909;-90
2021/07/30 02:02:33;;;;;;;;;;;;;;;;;;5074504;28;20352;-90
2021/07/30 02:04:58;;;;;;;;;;;;;;;;;;5077481;28;19915;-90
2021/07/30 02:07:24;;;;;;;;;;;;;;;;;;5063817;28;19909;-90
2021/07/30 02:09:50;;;;;;;;;;;;;;;;;;5064636;28;19908;-90
2021/07/30 02:12:16;;;;;;;;;;;;;;;;;;5068516;28;19921;-90
2021/07/30 02:14:42;;;;;;;;;;;;;;;;;;5065958;28;19897;-88
2021/07/30 02:17:08;;;;;;;;;;;;;;;;;;5074034;28;19921;-90
2021/07/30 02:19:34;;;;;;;;;;;;;;;;;;5072644;28;19913;-90
2021/07/30 02:22:00;;;;;;;;;;;;;;;;;;5072387;28;19976;-90
2021/07/30 02:24:26;;;;;;;;;;;;;;;;;;5069726;28;19909;-90
2021/07/30 02:26:53;;;;;;;;;;;;;;;;;;5058735;28;19984;-90
2021/07/30 02:29:19;;;;;;;;;;;;;;;;;;5079283;28;19913;-91
2021/07/30 02:31:45;;;;;;;;;;;;;;;;;;5072028;28;19959;-90
2021/07/30 02:34:11;;;;;;;;;;;;;;;;;;5091571;28;19909;-90
2021/07/30 02:36:37;;;;;;;;;;;;;;;;;;5060758;28;19921;-90
2021/07/30 02:39:03;;;;;;;;;;;;;;;;;;5078743;28;19913;-90
2021/07/30 02:41:28;;;;;;;;;;;;;;;;;;5073925;28;19913;-91
2021/07/30 02:43:54;;;;;;;;;;;;;;;;;;5063112;28;19943;-90
2021/07/30 02:46:20;;;;;;;;;;;;;;;;;;5063420;28;20280;-90
2021/07/30 02:48:46;;;;;;;;;;;;;;;;;;5055507;28;19915;-90
2021/07/30 02:51:12;;;;;;;;;;;;;;;;;;5060962;28;19913;-91
2021/07/30 02:53:39;;;;;;;;;;;;;;;;;;5064058;28;20321;-89
2021/07/30 02:56:05;;;;;;;;;;;;;;;;;;5060783;28;19960;-90
2021/07/30 02:58:31;;;;;;;;;;;;;;;;;;5062227;28;19944;-89
2021/07/30 03:00:58;;;;;;;;;;;;;;;;;;5072894;28;20008;-89
2021/07/30 03:03:23;;;;;;;;;;;;;;;;;;5065645;28;20360;-90
2021/07/30 03:05:50;;;;;;;;;;;;;;;;;;5064616;28;19913;-90
2021/07/30 03:08:16;;;;;;;;;;;;;;;;;;5063676;28;19920;-90
2021/07/30 03:10:41;;;;;;;;;;;;;;;;;;5069139;28;19921;-90
2021/07/30 03:13:07;;;;;;;;;;;;;;;;;;5066409;28;19909;-90
2021/07/30 03:15:33;;;;;;;;;;;;;;;;;;5067330;28;19917;-89
2021/07/30 03:17:59;;;;;;;;;;;;;;;;;;5065182;28;19952;-88
2021/07/30 03:20:25;;;;;;;;;;;;;;;;;;5069727;28;19934;-90
2021/07/30 03:22:51;;;;;;;;;;;;;;;;;;5087221;28;19975;-90
2021/07/30 03:25:17;;;;;;;;;;;;;;;;;;5069334;28;20356;-90
2021/07/30 03:27:43;;;;;;;;;;;;;;;;;;5056797;28;19916;-90
2021/07/30 03:30:08;;;;;;;;;;;;;;;;;;5059250;28;19920;-89
2021/07/30 03:32:34;;;;;;;;;;;;;;;;;;5064885;28;19987;-90
2021/07/30 03:35:00;;;;;;;;;;;;;;;;;;5054462;28;19920;-90
2021/07/30 03:37:26;;;;;;;;;;;;;;;;;;5068543;28;19983;-89
2021/07/30 03:39:52;;;;;;;;;;;;;;;;;;5053335;28;19948;-90
2021/07/30 03:42:18;;;;;;;;;;;;;;;;;;5053626;28;20276;-90
2021/07/30 03:44:44;;;;;;;;;;;;;;;;;;5054535;28;19920;-89
2021/07/30 03:47:10;;;;;;;;;;;;;;;;;;5055107;28;19920;-90
2021/07/30 03:49:35;;;;;;;;;;;;;;;;;;5057723;28;20015;-90
2021/07/30 03:52:01;;;;;;;;;;;;;;;;;;5052135;28;19909;-89
2021/07/30 03:54:27;;;;;;;;;;;;;;;;;;5055623;28;19912;-89
2021/07/30 03:56:53;;;;;;;;;;;;;;;;;;5059237;28;19925;-90
2021/07/30 03:59:19;;;;;;;;;;;;;;;;;;5054889;28;19913;-89
2021/07/30 04:01:48;;;;;;;;;;;;;;;;;;5070265;28;19980;-90
2021/07/30 04:04:14;;;;;;;;;;;;;;;;;;5073953;28;19909;-91
2021/07/30 04:06:40;;;;;;;;;;;;;;;;;;5063416;28;19913;-93
2021/07/30 04:09:06;;;;;;;;;;;;;;;;;;5057857;28;19955;-94
2021/07/30 04:11:31;;;;;;;;;;;;;;;;;;5069382;28;19917;-93
2021/07/30 04:13:57;;;;;;;;;;;;;;;;;;5063258;28;19983;-94
2021/07/30 04:16:23;;;;;;;;;;;;;;;;;;5079430;28;19917;-94
2021/07/30 04:18:49;;;;;;;;;;;;;;;;;;5070321;28;19909;-94
2021/07/30 04:21:15;;;;;;;;;;;;;;;;;;5062597;28;19913;-94
2021/07/30 04:23:41;;;;;;;;;;;;;;;;;;5079976;28;19936;-94
2021/07/30 04:26:07;;;;;;;;;;;;;;;;;;5053763;28;19984;-93
2021/07/30 04:28:33;;;;;;;;;;;;;;;;;;5061976;28;20422;-93
2021/07/30 04:30:59;;;;;;;;;;;;;;;;;;5072219;28;19905;-94
2021/07/30 04:33:24;;;;;;;;;;;;;;;;;;5059360;28;19920;-93
2021/07/30 04:35:50;;;;;;;;;;;;;;;;;;5063012;28;19917;-92
2021/07/30 04:38:16;;;;;;;;;;;;;;;;;;5072556;28;19920;-94
2021/07/30 04:40:42;;;;;;;;;;;;;;;;;;5079887;28;19915;-93
2021/07/30 04:43:08;;;;;;;;;;;;;;;;;;5059010;28;19920;-94
2021/07/30 04:45:37;;;;;;;;;;;;;;;;;;5058329;28;19913;-94
2021/07/30 04:48:03;;;;;;;;;;;;;;;;;;5063001;28;19954;-94
2021/07/30 04:50:29;;;;;;;;;;;;;;;;;;5068047;28;19913;-94
2021/07/30 04:52:55;;;;;;;;;;;;;;;;;;5068020;28;19913;-93
2021/07/30 04:55:21;;;;;;;;;;;;;;;;;;5058999;28;19928;-94
2021/07/30 04:57:47;;;;;;;;;;;;;;;;;;5071055;28;19943;-93
2021/07/30 05:00:13;;;;;;;;;;;;;;;;;;5076064;28;19913;-93
2021/07/30 05:02:39;;;;;;;;;;;;;;;;;;5058292;28;19912;-94
2021/07/30 05:05:06;;;;;;;;;;;;;;;;;;5054604;28;19913;-94
2021/07/30 05:07:32;;;;;;;;;;;;;;;;;;5057784;28;19909;-94
2021/07/30 05:09:57;;;;;;;;;;;;;;;;;;5075161;28;19909;-95
2021/07/30 05:12:23;;;;;;;;;;;;;;;;;;5053386;28;19913;-91
2021/07/30 05:14:49;;;;;;;;;;;;;;;;;;5061508;28;19912;-91
2021/07/30 05:17:15;;;;;;;;;;;;;;;;;;5057514;28;19925;-91
2021/07/30 05:19:41;;;;;;;;;;;;;;;;;;5072447;28;19912;-92
2021/07/30 05:22:07;;;;;;;;;;;;;;;;;;5065786;28;19912;-92
2021/07/30 05:24:33;;;;;;;;;;;;;;;;;;5065882;28;19914;-91
2021/07/30 05:26:59;;;;;;;;;;;;;;;;;;5074524;28;19916;-91
2021/07/30 05:29:25;;;;;;;;;;;;;;;;;;5068303;28;20285;-91
2021/07/30 05:31:50;;;;;;;;;;;;;;;;;;5073165;28;19912;-91
2021/07/30 05:34:16;;;;;;;;;;;;;;;;;;5066529;28;19909;-91
2021/07/30 05:36:42;;;;;;;;;;;;;;;;;;5060258;28;19917;-91
2021/07/30 05:39:08;;;;;;;;;;;;;;;;;;5067987;28;19913;-91
2021/07/30 05:41:34;;;;;;;;;;;;;;;;;;5066842;28;19908;-91
2021/07/30 05:44:00;;;;;;;;;;;;;;;;;;5058139;28;19916;-91
2021/07/30 05:46:26;;;;;;;;;;;;;;;;;;5068853;28;20351;-90
2021/07/30 05:48:56;;;;;;;;;;;;;;;;;;5062688;28;20403;-91
2021/07/30 05:51:22;;;;;;;;;;;;;;;;;;5047039;28;19935;-91
2021/07/30 05:53:48;;;;;;;;;;;;;;;;;;5047334;28;20420;-91
2021/07/30 05:56:14;;;;;;;;;;;;;;;;;;5095329;28;19909;-91
2021/07/30 05:58:40;;;;;;;;;;;;;;;;;;5077903;28;19935;-90
2021/07/30 06:01:06;;;;;;;;;;;;;;;;;;5068898;28;19986;-92
2021/07/30 06:03:32;;;;;;;;;;;;;;;;;;5061602;28;19948;-91
2021/07/30 06:05:57;;;;;;;;;;;;;;;;;;5054305;28;19948;-91
2021/07/30 06:08:23;;;;;;;;;;;;;;;;;;5052329;28;19915;-91
2021/07/30 06:10:49;;;;;;;;;;;;;;;;;;5054753;28;20361;-91
2021/07/30 06:13:15;;;;;;;;;;;;;;;;;;5057793;28;19909;-91
2021/07/30 06:15:41;;;;;;;;;;;;;;;;;;5058690;28;19917;-91
2021/07/30 06:18:07;;;;;;;;;;;;;;;;;;5060738;28;19920;-91
2021/07/30 06:20:33;;;;;;;;;;;;;;;;;;5060213;28;19958;-91
2021/07/30 06:22:59;;;;;;;;;;;;;;;;;;5065242;28;20249;-92
2021/07/30 06:25:25;;;;;;;;;;;;;;;;;;5070426;28;20361;-91
2021/07/30 06:27:50;;;;;;;;;;;;;;;;;;5052167;28;19909;-89
2021/07/30 06:30:16;;;;;;;;;;;;;;;;;;5054535;28;19916;-90
2021/07/30 06:32:42;;;;;;;;;;;;;;;;;;5067782;28;19923;-92
2021/07/30 06:35:08;;;;;;;;;;;;;;;;;;5060911;28;19912;-92
2021/07/30 06:37:34;;;;;;;;;;;;;;;;;;5062487;28;20350;-90
2021/07/30 06:40:00;;;;;;;;;;;;;;;;;;5056147;28;20000;-91
2021/07/30 06:42:26;;;;;;;;;;;;;;;;;;5082324;28;19965;-91
2021/07/30 06:44:52;;;;;;;;;;;;;;;;;;5066328;28;19936;-92
2021/07/30 06:47:23;;;;;;;;;;;;;;;;;;5058436;28;19913;-92
2021/07/30 06:49:49;;;;;;;;;;;;;;;;;;5078983;28;19932;-92
2021/07/30 06:52:15;;;;;;;;;;;;;;;;;;5088340;28;19908;-91
2021/07/30 06:54:41;;;;;;;;;;;;;;;;;;5071750;28;19920;-92
2021/07/30 06:57:07;;;;;;;;;;;;;;;;;;5081789;28;19921;-91
2021/07/30 06:59:33;;;;;;;;;;;;;;;;;;5082357;28;19917;-91
2021/07/30 07:01:59;;;;;;;;;;;;;;;;;;5063976;28;19989;-89
2021/07/30 07:04:25;;;;;;;;;;;;;;;;;;5064397;28;19912;-91
2021/07/30 07:06:51;;;;;;;;;;;;;;;;;;5080182;28;20369;-90
2021/07/30 07:09:17;;;;;;;;;;;;;;;;;;5061609;28;19913;-92
2021/07/30 07:11:43;;;;;;;;;;;;;;;;;;5070747;28;20439;-92
2021/07/30 07:14:08;;;;;;;;;;;;;;;;;;5056320;28;19913;-92
2021/07/30 07:16:34;;;;;;;;;;;;;;;;;;5059724;28;19948;-91
2021/07/30 07:19:00;;;;;;;;;;;;;;;;;;5058202;28;19915;-91
2021/07/30 07:21:26;;;;;;;;;;;;;;;;;;5066942;28;20371;-92
2021/07/30 07:23:52;;;;;;;;;;;;;;;;;;5063449;28;19913;-93
2021/07/30 07:26:18;;;;;;;;;;;;;;;;;;5060819;28;20289;-90
2021/07/30 07:28:44;;;;;;;;;;;;;;;;;;5060281;28;20000;-92
2021/07/30 07:31:10;;;;;;;;;;;;;;;;;;5062131;28;19916;-92
2021/07/30 07:33:36;;;;;;;;;;;;;;;;;;5059324;28;20016;-91
2021/07/30 07:36:01;;;;;;;;;;;;;;;;;;5061473;28;19925;-91
2021/07/30 07:38:27;;;;;;;;;;;;;;;;;;5069549;28;19909;-89
2021/07/30 07:40:53;;;;;;;;;;;;;;;;;;5063610;28;19913;-91
2021/07/30 07:43:19;;;;;;;;;;;;;;;;;;5055401;28;20379;-91
2021/07/30 07:45:45;;;;;;;;;;;;;;;;;;5071814;28;19920;-90
2021/07/30 07:48:11;;;;;;;;;;;;;;;;;;5065895;28;19913;-92
2021/07/30 07:50:37;;;;;;;;;;;;;;;;;;5057642;28;19912;-91
2021/07/30 07:53:03;;;;;;;;;;;;;;;;;;5067053;28;19913;-91
2021/07/30 07:55:29;;;;;;;;;;;;;;;;;;5068100;28;20011;-89
2021/07/30 07:57:55;;;;;;;;;;;;;;;;;;5057574;28;20450;-90
2021/07/30 08:00:20;;;;;;;;;;;;;;;;;;5064564;28;19912;-89
2021/07/30 08:02:46;;;;;;;;;;;;;;;;;;5064943;28;19922;-91
2021/07/30 08:05:12;;;;;;;;;;;;;;;;;;5063819;28;19919;-89
2021/07/30 08:07:38;;;;;;;;;;;;;;;;;;5058474;28;19909;-90
2021/07/30 08:10:04;;;;;;;;;;;;;;;;;;5063295;28;20315;-92
2021/07/30 08:12:30;;;;;;;;;;;;;;;;;;5060074;28;19924;-92
2021/07/30 08:14:56;;;;;;;;;;;;;;;;;;5063511;28;19923;-92
2021/07/30 08:17:22;;;;;;;;;;;;;;;;;;5065417;28;20004;-92
2021/07/30 08:19:50;;;;;;;;;;;;;;;;;;5055250;28;20342;-92
2021/07/30 08:22:16;;;;;;;;;;;;;;;;;;5080684;28;19908;-91
2021/07/30 08:24:42;;;;;;;;;;;;;;;;;;5063288;28;19963;-92
2021/07/30 08:27:10;;;;;;;;;;;;;;;;;;5076900;28;19909;-92
2021/07/30 08:29:36;;;;;;;;;;;;;;;;;;5068147;28;19959;-91
2021/07/30 08:32:02;;;;;;;;;;;;;;;;;;5091211;28;19917;-91
2021/07/30 08:34:28;;;;;;;;;;;;;;;;;;5069334;28;19917;-92
2021/07/30 08:36:53;;;;;;;;;;;;;;;;;;5066339;28;19968;-89
2021/07/30 08:39:19;;;;;;;;;;;;;;;;;;5064925;28;19940;-89
2021/07/30 08:41:46;;;;;;;;;;;;;;;;;;5066456;28;19968;-91
2021/07/30 08:44:12;;;;;;;;;;;;;;;;;;5073331;28;19944;-91
2021/07/30 08:46:40;;;;;;;;;;;;;;;;;;5083283;28;19912;-91
2021/07/30 08:49:07;;;;;;;;;;;;;;;;;;5072859;28;19919;-91
2021/07/30 08:51:33;;;;;;;;;;;;;;;;;;5068513;28;19924;-92
2021/07/30 08:53:59;;;;;;;;;;;;;;;;;;5091104;28;19913;-89
2021/07/30 08:56:25;;;;;;;;;;;;;;;;;;5089201;28;20285;-90
2021/07/30 08:58:51;;;;;;;;;;;;;;;;;;5087828;28;19952;-90
2021/07/30 09:01:17;;;;;;;;;;;;;;;;;;5079106;28;19908;-90
2021/07/30 09:03:43;;;;;;;;;;;;;;;;;;5071348;28;19909;-90
2021/07/30 09:06:09;;;;;;;;;;;;;;;;;;5073491;28;19927;-89
2021/07/30 09:08:35;;;;;;;;;;;;;;;;;;5092083;28;19897;-89
2021/07/30 09:11:00;;;;;;;;;;;;;;;;;;5062138;28;19909;-88
2021/07/30 09:13:27;;;;;;;;;;;;;;;;;;5072003;28;19916;-90
2021/07/30 09:15:53;;;;;;;;;;;;;;;;;;5072758;28;19920;-88
2021/07/30 09:18:18;;;;;;;;;;;;;;;;;;5063256;28;19915;-90
2021/07/30 09:20:44;;;;;;;;;;;;;;;;;;5065219;28;19935;-89
2021/07/30 09:23:10;;;;;;;;;;;;;;;;;;5066300;28;19921;-90
2021/07/30 09:25:36;;;;;;;;;;;;;;;;;;5079471;28;19912;-91
2021/07/30 09:28:02;;;;;;;;;;;;;;;;;;5061195;28;19917;-90
2021/07/30 09:30:28;;;;;;;;;;;;;;;;;;5073263;28;19959;-91
2021/07/30 09:32:54;;;;;;;;;;;;;;;;;;5079629;28;19909;-91
2021/07/30 09:35:20;;;;;;;;;;;;;;;;;;5064082;28;19920;-90
2021/07/30 09:37:46;;;;;;;;;;;;;;;;;;5068988;28;19966;-91
2021/07/30 09:40:12;;;;;;;;;;;;;;;;;;5055868;28;20021;-91
2021/07/30 09:42:37;;;;;;;;;;;;;;;;;;5064542;28;19915;-90
2021/07/30 09:45:06;;;;;;;;;;;;;;;;;;5072615;28;19905;-90
2021/07/30 09:47:34;;;;;;;;;;;;;;;;;;5069613;28;19974;-91
2021/07/30 09:50:00;;;;;;;;;;;;;;;;;;5077495;28;19951;-91
2021/07/30 09:52:25;;;;;;;;;;;;;;;;;;5081352;28;19913;-89
2021/07/30 09:54:51;;;;;;;;;;;;;;;;;;5074730;28;19913;-90
2021/07/30 09:57:17;;;;;;;;;;;;;;;;;;5082410;28;19909;-90
2021/07/30 09:59:43;;;;;;;;;;;;;;;;;;5074663;28;20020;-92
2021/07/30 10:02:09;;;;;;;;;;;;;;;;;;5073981;28;19942;-91
2021/07/30 10:04:36;;;;;;;;;;;;;;;;;;5066438;28;19909;-91
2021/07/30 10:07:02;;;;;;;;;;;;;;;;;;5063194;28;20004;-90
2021/07/30 10:09:28;;;;;;;;;;;;;;;;;;5064909;28;19948;-90
2021/07/30 10:11:54;;;;;;;;;;;;;;;;;;5062900;28;19955;-90
2021/07/30 10:14:25;;;;;;;;;;;;;;;;;;5062007;28;20482;-90
2021/07/30 10:16:51;;;;;;;;;;;;;;;;;;5066408;28;19923;-90
2021/07/30 10:19:17;;;;;;;;;;;;;;;;;;5080815;28;19909;-90
2021/07/30 10:21:59;;;;;;;;;;;;;;;;;;5058847;28;20431;-91
2021/07/30 10:24:25;;;;;;;;;;;;;;;;;;5063254;28;19913;-91
2021/07/30 10:26:51;;;;;;;;;;;;;;;;;;5059955;28;19920;-90
2021/07/30 10:29:17;;;;;;;;;;;;;;;;;;5062081;28;19912;-92
2021/07/30 10:31:43;;;;;;;;;;;;;;;;;;5055912;28;19913;-91
2021/07/30 10:34:09;;;;;;;;;;;;;;;;;;5061526;28;19916;-91
2021/07/30 10:36:37;;;;;;;;;;;;;;;;;;5061213;28;19924;-91
2021/07/30 10:39:03;;;;;;;;;;;;;;;;;;5067438;28;19909;-91
2021/07/30 10:41:29;;;;;;;;;;;;;;;;;;5061211;28;19923;-91
2021/07/30 10:43:55;;;;;;;;;;;;;;;;;;5054173;28;19912;-90
2021/07/30 10:46:21;;;;;;;;;;;;;;;;;;5059686;28;19908;-91
2021/07/30 10:48:47;;;;;;;;;;;;;;;;;;5052450;28;19920;-91
2021/07/30 10:51:13;;;;;;;;;;;;;;;;;;5054377;28;19951;-90
2021/07/30 10:53:38;;;;;;;;;;;;;;;;;;5058494;28;19963;-91
2021/07/30 10:56:04;;;;;;;;;;;;;;;;;;5057641;28;19961;-91
2021/07/30 10:58:30;;;;;;;;;;;;;;;;;;5065677;28;20480;-90
2021/07/30 11:00:56;;;;;;;;;;;;;;;;;;5082930;28;19912;-91
2021/07/30 11:03:22;;;;;;;;;;;;;;;;;;5064888;28;19909;-91
2021/07/30 11:05:48;;;;;;;;;;;;;;;;;;5072221;28;19917;-91
2021/07/30 11:08:14;;;;;;;;;;;;;;;;;;5081253;28;20024;-91
2021/07/30 11:10:40;;;;;;;;;;;;;;;;;;5080904;28;19916;-91
2021/07/30 11:13:07;;;;;;;;;;;;;;;;;;5062463;28;19916;-90
2021/07/30 11:15:33;;;;;;;;;;;;;;;;;;5053473;28;19917;-90
2021/07/30 11:18:03;;;;;;;;;;;;;;;;;;5053404;28;19945;-91
2021/07/30 11:20:29;;;;;;;;;;;;;;;;;;5071398;28;19931;-91
2021/07/30 11:22:55;;;;;;;;;;;;;;;;;;5069643;28;19913;-91
2021/07/30 11:25:21;;;;;;;;;;;;;;;;;;5052997;28;19909;-91
2021/07/30 11:27:47;;;;;;;;;;;;;;;;;;5058952;28;19909;-91
2021/07/30 11:30:13;;;;;;;;;;;;;;;;;;5067196;28;19913;-90
2021/07/30 11:32:39;;;;;;;;;;;;;;;;;;5064844;28;19923;-92
2021/07/30 11:35:09;;;;;;;;;;;;;;;;;;5064862;28;19936;-91
2021/07/30 11:37:35;;;;;;;;;;;;;;;;;;5071118;28;20003;-90
2021/07/30 11:40:01;;;;;;;;;;;;;;;;;;5066129;28;19909;-91
2021/07/30 11:42:31;;;;;;;;;;;;;;;;;;5079905;28;20365;-91
2021/07/30 11:44:57;;;;;;;;;;;;;;;;;;5066765;28;20015;-90
2021/07/30 11:47:22;;;;;;;;;;;;;;;;;;5072652;28;19909;-90
2021/07/30 11:49:48;;;;;;;;;;;;;;;;;;5053207;28;19913;-90
2021/07/30 11:52:14;;;;;;;;;;;;;;;;;;5074224;28;20349;-89
2021/07/30 11:54:40;;;;;;;;;;;;;;;;;;5076128;28;19913;-91
2021/07/30 11:57:07;;;;;;;;;;;;;;;;;;5058818;28;19933;-90
2021/07/30 11:59:33;;;;;;;;;;;;;;;;;;5064765;28;19909;-91
2021/07/30 12:01:59;;;;;;;;;;;;;;;;;;5063187;28;19913;-90
2021/07/30 12:04:25;;;;;;;;;;;;;;;;;;5069443;28;19909;-90
2021/07/30 12:06:51;;;;;;;;;;;;;;;;;;5072426;28;19909;-90
2021/07/30 12:09:17;;;;;;;;;;;;;;;;;;5066489;28;19997;-90
2021/07/30 12:11:43;;;;;;;;;;;;;;;;;;5052813;28;19917;-90
2021/07/30 12:14:09;;;;;;;;;;;;;;;;;;5067627;28;19909;-90
2021/07/30 12:16:35;;;;;;;;;;;;;;;;;;5065470;28;20284;-90
2021/07/30 12:19:01;;;;;;;;;;;;;;;;;;5087586;28;20272;-90
2021/07/30 12:21:27;;;;;;;;;;;;;;;;;;5074235;28;19919;-90
2021/07/30 12:23:53;;;;;;;;;;;;;;;;;;5067030;28;19909;-90
2021/07/30 12:26:18;;;;;;;;;;;;;;;;;;5057276;28;19920;-90
2021/07/30 12:28:44;;;;;;;;;;;;;;;;;;5070023;28;19916;-90
2021/07/30 12:31:10;;;;;;;;;;;;;;;;;;5085369;28;19908;-90
2021/07/30 12:33:36;;;;;;;;;;;;;;;;;;5063850;28;19939;-95
2021/07/30 12:36:02;;;;;;;;;;;;;;;;;;5060434;28;19921;-94
2021/07/30 12:38:28;;;;;;;;;;;;;;;;;;5079542;28;19913;-95
2021/07/30 12:40:54;;;;;;;;;;;;;;;;;;5065274;28;19909;-94
2021/07/30 12:43:20;;;;;;;;;;;;;;;;;;5062444;28;20305;-94
2021/07/30 12:45:49;;;;;;;;;;;;;;;;;;5072138;28;19912;-94
2021/07/30 12:48:14;;;;;;;;;;;;;;;;;;5054618;28;19936;-94
2021/07/30 12:50:40;;;;;;;;;;;;;;;;;;5070249;28;19913;-95
2021/07/30 12:53:06;;;;;;;;;;;;;;;;;;5056656;28;19917;-95
2021/07/30 12:55:32;;;;;;;;;;;;;;;;;;5079927;28;19924;-95
2021/07/30 12:57:58;;;;;;;;;;;;;;;;;;5085904;28;19944;-95
2021/07/30 13:00:24;;;;;;;;;;;;;;;;;;5071405;28;19940;-94
2021/07/30 13:02:50;;;;;;;;;;;;;;;;;;5071887;28;19965;-93
2021/07/30 13:05:18;;;;;;;;;;;;;;;;;;5066878;28;19913;-93
2021/07/30 13:07:44;;;;;;;;;;;;;;;;;;5066929;28;19915;-95
2021/07/30 13:10:10;;;;;;;;;;;;;;;;;;5081499;28;20007;-94
2021/07/30 13:12:36;;;;;;;;;;;;;;;;;;5062440;28;20004;-94
2021/07/30 13:15:03;;;;;;;;;;;;;;;;;;5054474;28;19913;-95
2021/07/30 13:17:29;;;;;;;;;;;;;;;;;;5056819;28;20285;-94
2021/07/30 13:19:55;;;;;;;;;;;;;;;;;;5062313;28;19928;-94
2021/07/30 13:22:21;;;;;;;;;;;;;;;;;;5063257;28;20008;-94
2021/07/30 13:24:47;;;;;;;;;;;;;;;;;;5070097;28;19913;-92
2021/07/30 13:27:13;;;;;;;;;;;;;;;;;;5073484;28;19924;-94
2021/07/30 13:29:39;;;;;;;;;;;;;;;;;;5086557;28;20293;-93
2021/07/30 13:32:05;;;;;;;;;;;;;;;;;;5068163;28;19958;-94
2021/07/30 13:34:31;;;;;;;;;;;;;;;;;;5088017;28;19940;-93
2021/07/30 13:36:57;;;;;;;;;;;;;;;;;;5071129;28;19920;-93
2021/07/30 13:41:52;;;;;;;;;;;;;;;;;;5049551;28;19925;-69
2021/07/30 13:44:17;;;;;;;;;;;;;;;;;;5051303;28;19920;-69
2021/07/30 13:46:43;;;;;;;;;;;;;;;;;;5050510;28;19917;-70
2021/07/30 13:49:09;;;;;;;;;;;;;;;;;;5044620;28;19923;-69
2021/07/30 13:51:35;;;;;;;;;;;;;;;;;;5039980;28;19920;-69
2021/07/30 13:54:01;;;;;;;;;;;;;;;;;;5041600;28;20334;-69
2021/07/30 13:56:27;;;;;;;;;;;;;;;;;;5040208;28;19921;-68
2021/07/30 13:58:53;;;;;;;;;;;;;;;;;;5039129;28;19920;-68
2021/07/30 14:01:19;;;;;;;;;;;;;;;;;;5050781;28;19908;-68
2021/07/30 14:03:45;;;;;;;;;;;;;;;;;;5048671;28;19913;-69
2021/07/30 14:06:11;;;;;;;;;;;;;;;;;;5048616;28;20356;-68
2021/07/30 14:08:37;;;;;;;;;;;;;;;;;;5048749;28;19959;-68
2021/07/30 14:11:03;;;;;;;;;;;;;;;;;;5043339;28;19975;-68
2021/07/30 14:13:29;;;;;;;;;;;;;;;;;;5039654;28;19909;-68
2021/07/30 14:15:55;;;;;;;;;;;;;;;;;;5046498;28;20407;-69
2021/07/30 14:18:21;;;;;;;;;;;;;;;;;;5040681;28;19920;-60
2021/07/30 14:20:47;;;;;;;;;;;;;;;;;;5038110;28;20419;-60
2021/07/30 14:23:13;;;;;;;;;;;;;;;;;;5049598;28;19961;-60
2021/07/30 14:25:39;;;;;;;;;;;;;;;;;;5048991;28;19908;-61
2021/07/30 14:28:05;;;;;;;;;;;;;;;;;;5039517;28;19916;-60
2021/07/30 14:30:31;;;;;;;;;;;;;;;;;;5048507;28;20437;-61
2021/07/30 14:32:57;;;;;;;;;;;;;;;;;;5050179;28;19913;-61
2021/07/30 14:35:23;;;;;;;;;;;;;;;;;;5048893;28;19917;-61
2021/07/30 14:37:48;;;;;;;;;;;;;;;;;;5042950;28;19916;-61
2021/07/30 14:40:14;;;;;;;;;;;;;;;;;;5047997;28;20402;-60
2021/07/30 14:42:41;;;;;;;;;;;;;;;;;;5053118;28;19995;-67
2021/07/30 14:45:07;;;;;;;;;;;;;;;;;;5047966;28;20458;-58
2021/07/30 14:47:33;;;;;;;;;;;;;;;;;;5044804;28;19912;-59
2021/07/30 14:49:59;;;;;;;;;;;;;;;;;;5052132;28;19912;-58
2021/07/30 14:52:25;;;;;;;;;;;;;;;;;;5037901;28;20052;-58
2021/07/30 14:54:50;;;;;;;;;;;;;;;;;;5054659;28;19983;-58
2021/07/30 14:57:16;;;;;;;;;;;;;;;;;;5053961;28;19924;-58
2021/07/30 14:59:44;;;;;;;;;;;;;;;;;;5053273;28;20401;-58
2021/07/30 15:02:10;;;;;;;;;;;;;;;;;;5040099;28;20004;-58
2021/07/30 15:04:36;;;;;;;;;;;;;;;;;;5050826;28;19913;-58
2021/07/30 15:07:01;;;;;;;;;;;;;;;;;;5052568;28;19916;-60
2021/07/30 15:09:27;;;;;;;;;;;;;;;;;;5053735;28;20273;-58
2021/07/30 15:11:53;;;;;;;;;;;;;;;;;;5048842;28;19952;-59
2021/07/30 15:14:19;;;;;;;;;;;;;;;;;;5041844;28;20368;-58
2021/07/30 15:16:45;;;;;;;;;;;;;;;;;;5053677;28;19924;-58
2021/07/30 15:19:11;;;;;;;;;;;;;;;;;;5054883;28;19919;-58
2021/07/30 15:21:37;;;;;;;;;;;;;;;;;;5049953;28;19945;-58
2021/07/30 15:24:03;;;;;;;;;;;;;;;;;;5053145;28;19913;-58
2021/07/30 15:26:29;;;;;;;;;;;;;;;;;;5053718;28;19959;-58
2021/07/30 15:28:56;;;;;;;;;;;;;;;;;;5053899;28;19913;-58
2021/07/30 15:31:22;;;;;;;;;;;;;;;;;;5053505;28;19909;-59
2021/07/30 15:33:48;;;;;;;;;;;;;;;;;;5053291;28;20316;-59
2021/07/30 15:36:15;;;;;;;;;;;;;;;;;;5053390;28;19921;-58
2021/07/30 15:38:41;;;;;;;;;;;;;;;;;;5035730;28;20425;-58
2021/07/30 15:41:07;;;;;;;;;;;;;;;;;;5052616;28;19988;-58
2021/07/30 15:43:33;;;;;;;;;;;;;;;;;;5036742;28;20459;-58
2021/07/30 15:45:59;;;;;;;;;;;;;;;;;;5053659;28;19916;-58
2021/07/30 15:48:25;;;;;;;;;;;;;;;;;;5053439;28;20032;-58
2021/07/30 15:50:51;;;;;;;;;;;;;;;;;;5049552;28;20465;-58
2021/07/30 15:53:17;;;;;;;;;;;;;;;;;;5052550;28;19913;-58
2021/07/30 15:55:43;;;;;;;;;;;;;;;;;;5052790;28;22866;-58
2021/07/30 15:58:08;;;;;;;;;;;;;;;;;;5053821;28;19955;-58
2021/07/30 16:00:34;;;;;;;;;;;;;;;;;;5052525;28;20297;-58
2021/07/30 16:03:00;;;;;;;;;;;;;;;;;;5051898;28;19917;-61
2021/07/30 16:05:26;;;;;;;;;;;;;;;;;;5049945;28;19963;-62
2021/07/30 16:07:52;;;;;;;;;;;;;;;;;;5053007;28;20386;-60
2021/07/30 16:10:18;;;;;;;;;;;;;;;;;;5052345;28;20229;-60
2021/07/30 16:12:44;;;;;;;;;;;;;;;;;;5041192;28;20403;-61
2021/07/30 16:15:10;;;;;;;;;;;;;;;;;;5047042;28;19919;-61
2021/07/30 16:17:35;;;;;;;;;;;;;;;;;;5052205;28;19925;-59
2021/07/30 16:20:01;;;;;;;;;;;;;;;;;;5052267;28;19913;-59
2021/07/30 16:22:27;;;;;;;;;;;;;;;;;;5049105;28;19908;-59
2021/07/30 16:24:53;;;;;;;;;;;;;;;;;;5040487;28;20288;-59
2021/07/30 16:27:19;;;;;;;;;;;;;;;;;;5048723;28;19916;-60
2021/07/30 16:29:45;;;;;;;;;;;;;;;;;;5034211;28;19924;-59
2021/07/30 16:32:11;;;;;;;;;;;;;;;;;;5040228;28;19944;-59
2021/07/30 16:34:37;;;;;;;;;;;;;;;;;;5051824;28;20372;-59
2021/07/30 16:37:03;;;;;;;;;;;;;;;;;;5052812;28;19917;-58
2021/07/30 16:39:29;;;;;;;;;;;;;;;;;;5051317;28;19923;-60